Flight Track Log - Related Links

Times and Time Zones

All times are in EDT time to prevent confusion due to time zone crossing. See the TVD220 flight status page for this flight to view local times or setup timezone preferences in your user account.

Time Position Orientation Groundspeed Altitude Reporting Facility
EDT Latitude Longitude Course Direction KTS MPH feet Rate Location/Type
Fri 11:09:08 PM 48.1072 -123.2900 97° East 106 122 3,500  Level Seattle Center
Fri 11:10:02 PM 48.1042 -123.2519 99° East 107 123 3,600  Climbing Seattle Center
Fri 11:11:03 PM 48.0992 -123.2050 99° East 110 127 3,500 -50 Descending Seattle Center
Fri 11:12:03 PM 48.0947 -123.1611 103° East 110 127 3,500  Level Seattle Center
Fri 11:13:04 PM 48.0883 -123.1181 107° East 107 123 3,500  Level Seattle Center
Fri 11:14:05 PM 48.0800 -123.0764 103° East 103 119 3,500  Level Seattle Center
Fri 11:15:05 PM 48.0736 -123.0333 104° East 104 120 3,500  Level Seattle Center
Fri 11:16:16 PM 48.0658 -122.9853 97° East 105 121 3,500  Level Seattle Center
Fri 11:16:48 PM 48.0636 -122.9592 104° East 106 122 3,500  Level Seattle Center
Fri 11:17:49 PM 48.0564 -122.9144 130° Southeast 107 123 3,500  Level Seattle Center
Fri 11:18:37 PM 48.0406 -122.8867 140° Southeast 109 125 3,500  Level Seattle Center
Fri 11:19:08 PM 48.0311 -122.8747 137° Southeast 107 123 3,500  Level Seattle Center
Fri 11:19:38 PM 48.0178 -122.8564 142° Southeast 108 124 3,500  Level Seattle Center
Fri 11:20:08 PM 48.0078 -122.8447 139° Southeast 109 125 3,500  Level Seattle Center
Fri 11:20:39 PM 47.9956 -122.8289 147° Southeast 110 127 3,500  Level Seattle Center
Fri 11:21:09 PM 47.9825 -122.8161 143° Southeast 111 128 3,500  Level Seattle Center
Fri 11:21:40 PM 47.9686 -122.8006 144° Southeast 112 129 3,500 83 Level Seattle Center
Fri 11:22:21 PM 47.9525 -122.7828 140° Southeast 110 127 3,600  Climbing Seattle Center
Fri 11:23:22 PM 47.9297 -122.7544 142° Southeast 108 124 3,500 -49 Descending Seattle Center
Fri 11:24:23 PM 47.9050 -122.7253 143° Southeast 112 129 3,500  Level Seattle Center
Fri 11:25:24 PM 47.8797 -122.6972 143° Southeast 114 131 3,500 49 Level Seattle Center
Fri 11:26:25 PM 47.8556 -122.6697 143° Southeast 111 128 3,600 49 Climbing Seattle Center
Fri 11:27:26 PM 47.8319 -122.6428 142° Southeast 109 125 3,600 -98 Level Seattle Center
Fri 11:28:27 PM 47.8067 -122.6139 144° Southeast 114 131 3,400 -248 Descending Seattle Center
Fri 11:29:27 PM 47.7769 -122.5817 141° Southeast 116 133 3,100 -248 Descending Seattle Center
Fri 11:30:28 PM 47.7497 -122.5494 144° Southeast 116 133 2,900 -267 Descending Seattle Center
Fri 11:31:42 PM 47.7181 -122.5158 142° Southeast 117 135 2,500 -267 Descending Seattle Center
Fri 11:32:43 PM 47.6931 -122.4869 135° Southeast 114 131 2,300 -220 Descending Seattle Center
Fri 11:33:31 PM 47.6778 -122.4639 139° Southeast 111 128 2,100 -220 Descending Seattle Center
Fri 11:34:32 PM 47.6519 -122.4311 137° Southeast 114 131 1,900 -246 Descending Seattle Center
Fri 11:35:33 PM 47.6261 -122.3956 138° Southeast 113 130 1,600 -148 Descending Seattle Center
Fri 11:36:34 PM 47.6033 -122.3653 151° Southeast 108 124 1,600 -246 Level Seattle Center
Fri 11:37:35 PM 47.5794 -122.3453 150° Southeast 107 123 1,100 -446 Descending Seattle Center
Fri 11:38:35 PM 47.5533 -122.3225 145° Southeast 103 119 700 -446 Descending Seattle Center
Fri 11:39:36 PM 47.5381 -122.3067 145° Southeast 85 98 200 -492 Descending Seattle Center

Login

Don't have an account? Register now (free) for customized features, flight alerts, and more!